Time;durP1;ratioP1;P1;durP2;ratioP2;P2;SDS_P1;SDS_P2;PMS_P1;PMS_P2;Temp;Humidity;BMP_temperature;BMP_pressure;BME280_temperature;BME280_humidity;BME280_pressure;Samples;Min_cycle;Max_cycle;Signal;HPM_P1;HPM_P2
2022/05/31 00:01:51;;;;;;;6.22;4.90;;;21.30;72.80;;;;;;5016051;28;20041;-73
2022/05/31 00:04:18;;;;;;;5.30;4.55;;;21.30;72.80;;;;;;5016040;28;20556;-73
2022/05/31 00:06:44;;;;;;;5.15;3.92;;;21.30;72.80;;;;;;5015895;28;20037;-72
2022/05/31 00:09:10;;;;;;;4.85;4.07;;;21.30;72.80;;;;;;5015989;28;20420;-73
2022/05/31 00:11:36;;;;;;;7.22;4.57;;;21.30;72.70;;;;;;5015714;28;20026;-74
2022/05/31 00:14:03;;;;;;;6.47;4.80;;;21.30;72.70;;;;;;5015798;28;20073;-73
2022/05/31 00:16:29;;;;;;;5.10;4.13;;;21.30;72.70;;;;;;5015772;28;20083;-72
2022/05/31 00:18:54;;;;;;;5.40;4.47;;;21.30;72.70;;;;;;5015758;28;20468;-72
2022/05/31 00:21:24;;;;;;;5.30;4.13;;;21.30;72.70;;;;;;5015727;28;20523;-72
2022/05/31 00:23:50;;;;;;;4.90;3.97;;;21.30;72.70;;;;;;5014624;28;20445;-73
2022/05/31 00:26:15;;;;;;;4.85;3.58;;;21.20;72.60;;;;;;5014387;28;20061;-73
2022/05/31 00:28:41;;;;;;;4.47;3.83;;;21.30;72.70;;;;;;5015490;28;20137;-73
2022/05/31 00:31:07;;;;;;;4.85;3.95;;;21.20;72.60;;;;;;5015509;28;20034;-73
2022/05/31 00:33:33;;;;;;;4.13;3.72;;;21.30;72.60;;;;;;5015552;28;20449;-73
2022/05/31 00:36:00;;;;;;;5.78;3.63;;;21.30;72.70;;;;;;5015400;28;20104;-73
2022/05/31 00:38:25;;;;;;;4.57;3.67;;;21.30;72.60;;;;;;5014972;28;20048;-72
2022/05/31 00:40:51;;;;;;;4.60;3.63;;;21.30;72.60;;;;;;5014066;28;20034;-74
2022/05/31 00:43:22;;;;;;;4.38;3.58;;;21.30;72.60;;;;;;5015234;28;20030;-72
2022/05/31 00:46:01;;;;;;;5.07;3.95;;;21.30;72.60;;;;;;5014553;28;20376;-73
2022/05/31 00:48:50;;;;;;;4.40;3.72;;;21.30;72.60;;;;;;5015350;28;20042;-73
2022/05/31 00:51:18;;;;;;;4.95;3.85;;;21.20;72.80;;;;;;5015060;28;20112;-73
2022/05/31 00:53:48;;;;;;;5.28;4.07;;;21.20;72.60;;;;;;5014267;28;20026;-73
2022/05/31 00:56:18;;;;;;;5.10;3.90;;;21.20;72.70;;;;;;5013824;28;20121;-73
2022/05/31 00:59:06;;;;;;;4.47;3.70;;;21.20;72.80;;;;;;5015050;28;20037;-73
2022/05/31 01:01:38;;;;;;;4.90;4.15;;;21.10;73.00;;;;;;5014581;28;20034;-73
2022/05/31 01:04:05;;;;;;;6.38;4.47;;;21.20;73.00;;;;;;5015261;28;20026;-73
2022/05/31 01:06:32;;;;;;;5.75;4.53;;;21.20;73.10;;;;;;5015273;28;20026;-72
2022/05/31 01:08:59;;;;;;;5.72;4.72;;;21.20;73.10;;;;;;5014738;28;20087;-73
2022/05/31 01:11:27;;;;;;;4.93;4.22;;;21.20;73.10;;;;;;5014640;28;20049;-72
2022/05/31 01:13:54;;;;;;;5.47;4.40;;;21.20;73.10;;;;;;5014458;28;20040;-73
2022/05/31 01:16:20;;;;;;;5.57;4.53;;;21.20;73.20;;;;;;5013395;28;20471;-73
2022/05/31 01:18:46;;;;;;;6.53;5.22;;;21.20;73.20;;;;;;5014699;28;20041;-73
2022/05/31 01:21:12;;;;;;;6.75;5.40;;;21.20;73.30;;;;;;5014636;28;20029;-73
2022/05/31 01:23:50;;;;;;;6.07;4.93;;;21.20;73.30;;;;;;5014679;28;20091;-73
2022/05/31 01:26:21;;;;;;;6.22;5.00;;;21.20;73.30;;;;;;5014599;28;20464;-73
2022/05/31 01:28:49;;;;;;;7.13;6.07;;;21.20;73.30;;;;;;5014552;28;20052;-73
2022/05/31 01:31:20;;;;;;;6.25;5.40;;;21.20;73.40;;;;;;5014317;28;20117;-73
2022/05/31 01:34:02;;;;;;;8.13;6.78;;;21.10;73.30;;;;;;5013555;28;20026;-73
2022/05/31 01:36:49;;;;;;;7.72;6.57;;;21.10;73.70;;;;;;5014143;28;20024;-72
2022/05/31 01:39:37;;;;;;;7.30;6.15;;;21.10;74.10;;;;;;5013380;28;20049;-73
2022/05/31 01:42:05;;;;;;;6.53;5.18;;;21.00;74.00;;;;;;5013258;28;20494;-73
2022/05/31 01:44:35;;;;;;;6.22;4.88;;;20.90;73.90;;;;;;5014390;28;20112;-73
2022/05/31 01:47:03;;;;;;;6.00;5.03;;;20.90;74.00;;;;;;5014264;28;20034;-73
2022/05/31 01:49:40;;;;;;;6.78;5.28;;;20.90;74.00;;;;;;5012879;28;20084;-73
2022/05/31 01:52:07;;;;;;;5.50;4.90;;;21.00;74.20;;;;;;5014619;28;20105;-74
2022/05/31 01:54:35;;;;;;;6.93;5.53;;;21.00;74.00;;;;;;5014069;28;20472;-73
2022/05/31 01:57:03;;;;;;;6.72;4.78;;;21.00;73.90;;;;;;5014211;28;20022;-74
2022/05/31 01:59:35;;;;;;;6.47;4.93;;;21.00;73.90;;;;;;5013780;28;20034;-73
2022/05/31 02:02:02;;;;;;;6.13;5.03;;;21.00;73.90;;;;;;5012941;28;20083;-73
2022/05/31 02:04:28;;;;;;;5.65;4.60;;;21.00;73.90;;;;;;5014280;28;20360;-73
2022/05/31 02:07:10;;;;;;;5.22;4.72;;;21.00;73.90;;;;;;5013999;28;20030;-73
2022/05/31 02:09:37;;;;;;;5.85;4.50;;;21.10;73.90;;;;;;5013982;28;20038;-74
2022/05/31 02:12:04;;;;;;;5.60;4.80;;;21.10;73.80;;;;;;5013943;28;20022;-73
2022/05/31 02:14:30;;;;;;;5.93;5.00;;;21.10;73.70;;;;;;5014210;28;20363;-73
2022/05/31 02:16:55;;;;;;;5.40;4.85;;;21.10;73.70;;;;;;5013858;28;20153;-74
2022/05/31 02:19:25;;;;;;;5.95;5.05;;;21.10;73.70;;;;;;5014031;28;20461;-73
2022/05/31 02:21:59;;;;;;;5.95;4.75;;;21.00;73.60;;;;;;5013900;28;20030;-73
2022/05/31 02:24:26;;;;;;;5.85;4.50;;;21.00;73.70;;;;;;5012614;28;20026;-73
2022/05/31 02:26:52;;;;;;;6.45;5.53;;;21.00;73.70;;;;;;5013602;28;20030;-74
2022/05/31 02:29:22;;;;;;;5.25;4.75;;;20.90;73.60;;;;;;5013550;28;20477;-74
2022/05/31 02:31:48;;;;;;;6.72;5.10;;;20.90;73.60;;;;;;5012543;28;20092;-74
2022/05/31 02:34:17;;;;;;;6.32;4.70;;;20.90;73.70;;;;;;5013895;28;20026;-74
2022/05/31 02:36:43;;;;;;;5.63;4.80;;;20.90;73.60;;;;;;5014104;28;20471;-74
2022/05/31 02:39:09;;;;;;;5.50;4.65;;;20.90;73.70;;;;;;5013396;28;20113;-74
2022/05/31 02:41:35;;;;;;;5.20;4.50;;;20.90;73.80;;;;;;5013943;28;20427;-74
2022/05/31 02:44:02;;;;;;;6.32;4.70;;;21.00;73.80;;;;;;5012799;28;20408;-74
2022/05/31 02:46:28;;;;;;;5.32;4.53;;;21.00;73.90;;;;;;5013540;28;20379;-74
2022/05/31 02:48:54;;;;;;;5.03;4.50;;;21.00;73.90;;;;;;5017577;28;20042;-74
2022/05/31 02:51:20;;;;;;;5.68;4.70;;;21.10;73.90;;;;;;5016338;28;20080;-73
2022/05/31 02:53:46;;;;;;;5.00;4.40;;;21.10;73.90;;;;;;5015882;28;20026;-72
2022/05/31 02:56:11;;;;;;;5.63;4.57;;;21.10;73.90;;;;;;5017413;28;20480;-72
2022/05/31 02:58:37;;;;;;;7.13;5.00;;;21.10;73.80;;;;;;5017397;28;20099;-72
2022/05/31 03:01:22;;;;;;;5.50;4.70;;;21.20;73.80;;;;;;5017215;28;20563;-72
2022/05/31 03:03:47;;;;;;;4.95;4.35;;;21.20;73.90;;;;;;5017343;28;20037;-73
2022/05/31 03:06:13;;;;;;;5.60;4.53;;;21.20;73.70;;;;;;5017200;28;20042;-74
2022/05/31 03:08:38;;;;;;;6.13;4.78;;;21.20;73.70;;;;;;5017184;28;20435;-73
2022/05/31 03:11:05;;;;;;;5.82;4.80;;;21.30;73.70;;;;;;5016192;28;20034;-73
2022/05/31 03:13:30;;;;;;;7.40;4.95;;;21.30;73.70;;;;;;5016868;28;20049;-73
2022/05/31 03:16:00;;;;;;;5.88;4.78;;;21.30;73.50;;;;;;5017122;28;20457;-73
2022/05/31 03:18:32;;;;;;;5.70;4.78;;;21.30;73.50;;;;;;5016907;28;20026;-74
2022/05/31 03:21:04;;;;;;;6.00;4.60;;;21.30;73.50;;;;;;5017232;28;20121;-74
2022/05/31 03:23:37;;;;;;;5.78;5.00;;;21.30;73.50;;;;;;5017072;28;20030;-74
2022/05/31 03:26:06;;;;;;;5.10;4.25;;;21.30;73.50;;;;;;5016981;28;20105;-73
2022/05/31 03:28:34;;;;;;;6.15;4.70;;;21.30;73.50;;;;;;5015353;28;20090;-73
2022/05/31 03:31:02;;;;;;;5.72;4.85;;;21.30;73.50;;;;;;5015513;28;20033;-73
2022/05/31 03:33:28;;;;;;;5.13;4.28;;;21.30;73.50;;;;;;5015150;28;20080;-73
2022/05/31 03:35:53;;;;;;;6.35;4.63;;;21.40;73.50;;;;;;5016563;28;20038;-73
2022/05/31 03:38:19;;;;;;;5.07;4.30;;;21.40;73.50;;;;;;5016898;28;20034;-74
2022/05/31 03:40:57;;;;;;;5.30;4.40;;;21.40;73.40;;;;;;5015313;28;20069;-74
2022/05/31 03:43:31;;;;;;;5.70;4.60;;;21.50;73.40;;;;;;5016637;28;20374;-72
2022/05/31 03:45:57;;;;;;;6.43;4.40;;;21.60;73.40;;;;;;5016546;28;20061;-72
2022/05/31 03:48:23;;;;;;;4.82;4.32;;;21.50;73.10;;;;;;5015206;28;20061;-72
2022/05/31 03:51:00;;;;;;;5.90;4.63;;;21.60;73.10;;;;;;5015159;28;20033;-72
2022/05/31 03:53:27;;;;;;;5.28;4.28;;;21.60;73.00;;;;;;5016177;28;20574;-73
2022/05/31 03:55:52;;;;;;;4.88;4.00;;;21.60;72.90;;;;;;5016107;28;20030;-73
2022/05/31 03:58:19;;;;;;;5.68;4.40;;;21.70;72.90;;;;;;5014648;28;20029;-72
2022/05/31 04:00:46;;;;;;;5.43;4.55;;;21.70;72.80;;;;;;5016171;28;20037;-72
2022/05/31 04:03:12;;;;;;;4.60;3.80;;;21.80;72.80;;;;;;5016352;28;20472;-72
2022/05/31 04:05:38;;;;;;;4.20;3.70;;;21.80;72.70;;;;;;5015841;28;20033;-72
2022/05/31 04:08:08;;;;;;;4.13;3.50;;;21.70;72.60;;;;;;5014631;28;20034;-72
2022/05/31 04:10:35;;;;;;;5.38;4.00;;;21.70;72.60;;;;;;5014757;28;20026;-72
2022/05/31 04:13:01;;;;;;;5.07;3.92;;;21.80;72.60;;;;;;5015613;28;20025;-74
2022/05/31 04:15:28;;;;;;;4.00;3.60;;;21.80;72.40;;;;;;5015873;28;20022;-73
2022/05/31 04:17:54;;;;;;;5.22;4.25;;;21.90;72.50;;;;;;5014485;28;20464;-72
2022/05/31 04:20:19;;;;;;;4.50;3.70;;;21.90;72.50;;;;;;5015788;28;20041;-73
2022/05/31 04:22:45;;;;;;;4.13;3.70;;;21.80;72.30;;;;;;5015566;28;20022;-72
2022/05/31 04:25:11;;;;;;;5.13;3.75;;;21.80;72.30;;;;;;5014440;28;20117;-72
2022/05/31 04:27:37;;;;;;;5.13;3.83;;;21.80;72.40;;;;;;5015393;28;20041;-73
2022/05/31 04:30:03;;;;;;;4.50;3.63;;;21.80;72.40;;;;;;5014275;28;20495;-73
2022/05/31 04:32:29;;;;;;;5.20;4.00;;;21.80;72.30;;;;;;5014340;28;20089;-74
2022/05/31 04:34:55;;;;;;;5.50;3.97;;;21.90;72.40;;;;;;5015465;28;20468;-73
2022/05/31 04:37:21;;;;;;;5.38;3.53;;;21.90;72.40;;;;;;5015464;28;20030;-73
2022/05/31 04:39:47;;;;;;;4.10;3.53;;;21.90;72.30;;;;;;5013966;28;20445;-73
2022/05/31 04:42:12;;;;;;;4.65;3.90;;;21.90;72.30;;;;;;5013830;28;20053;-73
2022/05/31 04:44:43;;;;;;;4.70;3.75;;;21.90;72.20;;;;;;5019157;28;20025;-73
2022/05/31 04:47:10;;;;;;;4.15;3.50;;;21.90;72.20;;;;;;5022635;28;20026;-73
2022/05/31 04:49:36;;;;;;;4.70;3.83;;;21.90;72.20;;;;;;5029932;28;20029;-75
2022/05/31 04:52:02;;;;;;;4.05;3.65;;;22.00;72.20;;;;;;5034088;28;20025;-71
2022/05/31 04:54:30;;;;;;;4.07;3.50;;;22.00;72.20;;;;;;5034487;28;20072;-73
2022/05/31 04:57:00;;;;;;;5.07;4.07;;;22.00;72.20;;;;;;5023852;28;20379;-74
2022/05/31 04:59:26;;;;;;;5.15;3.60;;;22.00;72.20;;;;;;5021605;28;20033;-72
2022/05/31 05:01:52;;;;;;;4.45;3.63;;;22.00;72.20;;;;;;5021025;28;20037;-74
2022/05/31 05:04:17;;;;;;;3.60;3.25;;;22.00;72.20;;;;;;5018804;28;20017;-73
2022/05/31 05:06:43;;;;;;;4.35;3.20;;;22.00;72.10;;;;;;5022475;28;20026;-72
2022/05/31 05:09:09;;;;;;;4.80;3.30;;;22.00;72.10;;;;;;5022662;28;20034;-72
2022/05/31 05:11:35;;;;;;;4.30;3.45;;;22.00;72.10;;;;;;5022555;28;20057;-74
2022/05/31 05:14:00;;;;;;;5.38;3.40;;;22.00;72.00;;;;;;5014132;28;20019;-72
2022/05/31 05:16:26;;;;;;;3.53;3.10;;;22.00;71.90;;;;;;5016118;28;20375;-72
2022/05/31 05:18:53;;;;;;;3.25;2.95;;;22.00;71.80;;;;;;5013458;28;20037;-73
2022/05/31 05:21:18;;;;;;;4.07;3.17;;;22.10;71.80;;;;;;5014158;28;20104;-72
2022/05/31 05:23:44;;;;;;;3.33;2.85;;;22.10;71.70;;;;;;5012905;28;20064;-72
2022/05/31 05:26:12;;;;;;;4.25;3.25;;;22.10;71.50;;;;;;5018632;28;20049;-70
2022/05/31 05:31:32;;;;;;;4.53;3.67;;;22.10;71.40;;;;;;5021062;28;20095;-74
2022/05/31 05:34:00;;;;;;;4.72;3.15;;;22.10;71.40;;;;;;5028993;28;20026;-75
2022/05/31 05:36:26;;;;;;;4.50;3.38;;;22.10;71.80;;;;;;5013470;28;20540;-73
2022/05/31 05:38:52;;;;;;;3.88;3.03;;;22.10;71.20;;;;;;5015963;28;20030;-74
2022/05/31 05:41:21;;;;;;;4.20;2.70;;;22.10;71.20;;;;;;5014484;28;20034;-75
2022/05/31 05:43:46;;;;;;;3.25;2.95;;;22.10;71.20;;;;;;5016383;28;20033;-73
2022/05/31 05:46:24;;;;;;;6.07;3.20;;;22.10;71.10;;;;;;5031711;28;20482;-74
2022/05/31 05:48:50;;;;;;;4.80;3.38;;;22.00;71.00;;;;;;5032809;28;20038;-68
2022/05/31 05:51:18;;;;;;;3.85;3.20;;;22.00;71.00;;;;;;5029864;28;20719;-68
2022/05/31 05:53:44;;;;;;;4.00;2.83;;;22.10;70.90;;;;;;5020093;28;20123;-67
2022/05/31 05:56:11;;;;;;;4.28;2.88;;;22.00;70.90;;;;;;5015562;28;20030;-68
2022/05/31 05:58:37;;;;;;;4.03;2.92;;;22.00;71.00;;;;;;5011323;28;20089;-69
2022/05/31 06:01:05;;;;;;;4.63;3.10;;;22.10;71.00;;;;;;5013393;28;20033;-67
2022/05/31 06:03:58;;;;;;;5.00;3.20;;;22.00;71.00;;;;;;5013620;28;20465;-68
2022/05/31 06:06:27;;;;;;;3.78;2.88;;;22.10;71.20;;;;;;5011847;28;20022;-67
2022/05/31 06:08:59;;;;;;;3.05;2.75;;;22.10;71.10;;;;;;5013146;28;20496;-68
2022/05/31 06:11:36;;;;;;;3.85;2.88;;;22.20;71.00;;;;;;5012913;28;20058;-67
2022/05/31 06:14:07;;;;;;;3.28;2.80;;;22.20;70.90;;;;;;5012971;28;20416;-67
2022/05/31 06:16:36;;;;;;;3.42;2.63;;;22.20;70.70;;;;;;5012658;28;20029;-67
2022/05/31 06:19:10;;;;;;;2.75;2.50;;;22.30;70.70;;;;;;5013460;28;20058;-66
2022/05/31 06:21:36;;;;;;;;;;;22.30;70.70;;;;;;5014156;28;20384;-68
2022/05/31 06:24:02;;;;;;;3.83;2.90;;;22.30;70.50;;;;;;5017912;28;19906;-69
2022/05/31 06:26:29;;;;;;;4.43;3.00;;;22.40;70.50;;;;;;5016081;28;20419;-68
2022/05/31 06:29:03;;;;;;;3.88;2.72;;;22.40;70.40;;;;;;5017448;28;20084;-68
2022/05/31 06:31:29;;;;;;;3.22;2.50;;;22.40;70.20;;;;;;5018117;28;20026;-68
2022/05/31 06:33:55;;;;;;;3.90;2.75;;;22.50;70.20;;;;;;5017522;28;20037;-69
2022/05/31 06:36:21;;;;;;;2.95;2.40;;;22.50;70.10;;;;;;5016451;28;20030;-68
2022/05/31 06:38:50;;;;;;;2.72;2.45;;;22.60;70.10;;;;;;5017708;28;20034;-68
2022/05/31 06:41:24;;;;;;;4.72;2.60;;;22.60;70.50;;;;;;5017565;28;20499;-67
2022/05/31 06:43:50;;;;;;;4.65;2.70;;;22.70;69.80;;;;;;5016367;28;20068;-67
2022/05/31 06:46:16;;;;;;;3.00;2.17;;;22.70;69.60;;;;;;5017505;28;20030;-68
2022/05/31 06:48:53;;;;;;;3.88;2.30;;;22.70;70.20;;;;;;5017316;28;20097;-66
2022/05/31 06:56:58;;;;;;;3.17;2.30;;;22.80;69.50;;;;;;5017267;28;20041;-66
2022/05/31 06:59:32;;;;;;;3.13;2.80;;;22.80;69.30;;;;;;5015628;28;20045;-67
2022/05/31 07:02:04;;;;;;;3.63;2.90;;;22.80;69.20;;;;;;5017683;28;20057;-68
2022/05/31 07:04:35;;;;;;;3.75;2.53;;;22.80;69.20;;;;;;5015955;28;20080;-66
2022/05/31 07:07:05;;;;;;;3.00;2.70;;;22.90;69.10;;;;;;5017144;28;20026;-68
2022/05/31 07:09:32;;;;;;;3.55;3.10;;;22.90;69.10;;;;;;5016295;28;20026;-68
2022/05/31 07:12:04;;;;;;;2.90;2.40;;;22.90;69.00;;;;;;5015600;28;20026;-67
2022/05/31 07:14:29;;;;;;;4.90;2.83;;;22.90;69.00;;;;;;5016927;28;20022;-67
2022/05/31 07:16:55;;;;;;;4.00;2.50;;;22.90;68.90;;;;;;5016800;28;20036;-68
2022/05/31 07:19:21;;;;;;;2.72;2.45;;;22.90;68.90;;;;;;5016912;28;20030;-68
2022/05/31 07:21:56;;;;;;;2.90;2.35;;;22.90;68.90;;;;;;5017016;28;20026;-67
2022/05/31 07:24:24;;;;;;;3.25;2.20;;;22.90;68.80;;;;;;5017131;28;20029;-68
2022/05/31 07:26:53;;;;;;;2.80;2.40;;;23.00;68.80;;;;;;5016646;28;20084;-67
2022/05/31 07:29:19;;;;;;;2.92;2.40;;;23.00;68.80;;;;;;5016576;28;20053;-67
2022/05/31 07:31:48;;;;;;;3.55;2.20;;;23.00;68.70;;;;;;5017027;28;20408;-68
2022/05/31 07:34:23;;;;;;;2.78;2.35;;;23.00;68.60;;;;;;5015674;28;20037;-68
2022/05/31 07:36:49;;;;;;;3.60;2.80;;;23.00;68.50;;;;;;5014983;28;20041;-69
2022/05/31 07:39:17;;;;;;;3.22;2.60;;;23.00;68.50;;;;;;5015040;28;20450;-68
2022/05/31 07:41:58;;;;;;;3.58;2.58;;;23.10;68.50;;;;;;5016772;28;20041;-67
2022/05/31 07:44:25;;;;;;;2.50;2.30;;;23.10;68.30;;;;;;5016446;28;20423;-68
2022/05/31 07:46:55;;;;;;;2.97;2.47;;;23.10;68.40;;;;;;5015108;28;20053;-67
2022/05/31 07:49:21;;;;;;;3.15;2.35;;;23.10;68.30;;;;;;5015072;28;20038;-68
2022/05/31 07:51:47;;;;;;;2.90;2.60;;;23.10;68.30;;;;;;5016263;28;20033;-68
2022/05/31 07:54:13;;;;;;;5.53;2.90;;;23.10;68.30;;;;;;5016134;28;20042;-67
2022/05/31 07:56:39;;;;;;;3.65;2.50;;;23.20;68.10;;;;;;5015992;28;20026;-66
2022/05/31 07:59:05;;;;;;;3.13;2.50;;;23.20;68.70;;;;;;5014649;28;20041;-67
2022/05/31 08:01:30;;;;;;;3.80;2.53;;;23.20;68.20;;;;;;5016316;28;20117;-67
2022/05/31 08:03:57;;;;;;;3.72;2.50;;;23.20;68.20;;;;;;5015690;28;20119;-66
2022/05/31 08:06:29;;;;;;;2.72;2.30;;;23.20;68.20;;;;;;5014287;28;20030;-67
2022/05/31 08:08:57;;;;;;;4.15;2.40;;;23.20;68.20;;;;;;4998855;28;20038;-68
2022/05/31 08:11:28;;;;;;;3.42;2.70;;;23.20;68.10;;;;;;5015811;28;20091;-66
2022/05/31 08:13:55;;;;;;;3.10;2.50;;;23.30;68.10;;;;;;5015838;28;20028;-66
2022/05/31 08:16:22;;;;;;;5.50;2.78;;;23.30;68.10;;;;;;5014414;28;20038;-67
2022/05/31 08:18:48;;;;;;;3.08;2.67;;;23.30;68.00;;;;;;5014100;28;20133;-67
2022/05/31 08:21:19;;;;;;;3.08;2.47;;;23.30;68.10;;;;;;5014834;28;20152;-68
2022/05/31 08:23:45;;;;;;;3.15;2.78;;;23.30;67.90;;;;;;5014566;28;20124;-67
2022/05/31 08:26:11;;;;;;;3.53;2.53;;;23.30;67.90;;;;;;5015602;28;20069;-68
2022/05/31 08:28:37;;;;;;;2.83;2.30;;;23.40;67.90;;;;;;5015894;28;20050;-68
2022/05/31 08:31:06;;;;;;;2.78;2.10;;;23.50;67.90;;;;;;5015692;28;20491;-67
2022/05/31 08:33:33;;;;;;;3.13;2.25;;;23.50;67.80;;;;;;5015195;28;20057;-67
2022/05/31 08:35:59;;;;;;;3.08;2.50;;;23.50;67.70;;;;;;5015166;28;20033;-67
2022/05/31 08:38:25;;;;;;;3.72;2.47;;;23.60;67.70;;;;;;5015093;28;20036;-67
2022/05/31 08:41:02;;;;;;;4.20;2.65;;;23.60;67.50;;;;;;5015080;28;20515;-68
2022/05/31 08:43:45;;;;;;;2.65;2.20;;;23.70;67.30;;;;;;5015632;28;20065;-68
2022/05/31 08:46:26;;;;;;;5.68;2.95;;;23.80;67.30;;;;;;5015150;28;20461;-68
2022/05/31 08:49:00;;;;;;;3.28;2.88;;;23.90;67.30;;;;;;5015074;28;20065;-68
2022/05/31 08:51:58;;;;;;;3.05;2.70;;;24.00;67.10;;;;;;5015199;28;20068;-68
2022/05/31 08:57:53;;;;;;;3.72;2.63;;;24.30;66.70;;;;;;5015003;28;20042;-67
2022/05/31 09:00:34;;;;;;;3.03;2.35;;;24.50;66.50;;;;;;5014804;28;20117;-68
2022/05/31 09:03:07;;;;;;;2.70;2.28;;;24.70;66.40;;;;;;5013428;28;20037;-68
2022/05/31 09:05:42;;;;;;;2.50;2.30;;;24.80;66.20;;;;;;5014896;28;20026;-67
2022/05/31 09:08:20;;;;;;;3.05;2.33;;;24.90;65.90;;;;;;5014918;28;20049;-68
2022/05/31 09:11:03;;;;;;;2.67;2.33;;;25.10;65.70;;;;;;5014752;28;20029;-68
2022/05/31 09:13:38;;;;;;;3.08;2.45;;;25.10;65.40;;;;;;5013361;28;20117;-69
2022/05/31 09:16:29;;;;;;;2.90;2.42;;;25.20;65.20;;;;;;5013402;28;20038;-68
2022/05/31 09:19:00;;;;;;;7.22;2.60;;;25.20;64.80;;;;;;5014579;28;20026;-68
2022/05/31 09:21:48;;;;;;;5.75;2.83;;;25.30;64.70;;;;;;5014197;28;20038;-68
2022/05/31 09:24:17;;;;;;;4.53;2.97;;;25.30;64.50;;;;;;5014712;28;20053;-66
2022/05/31 09:27:06;;;;;;;3.95;2.90;;;25.30;64.60;;;;;;5012934;28;20026;-68
2022/05/31 09:29:47;;;;;;;3.67;2.85;;;25.40;64.60;;;;;;5014563;28;20057;-68
2022/05/31 09:32:59;;;;;;;3.58;3.00;;;25.50;64.60;;;;;;5014471;28;20057;-68
2022/05/31 09:35:43;;;;;;;4.53;2.58;;;25.60;64.00;;;;;;5018717;28;20120;-68
2022/05/31 09:38:08;;;;;;;;;;;25.60;63.90;;;;;;5014424;28;20116;-67
2022/05/31 09:40:52;;;;;;;3.10;2.25;;;25.60;63.50;;;;;;5014236;28;20463;-67
2022/05/31 09:43:32;;;;;;;3.17;2.65;;;25.70;63.70;;;;;;5012742;28;20022;-67
2022/05/31 09:46:05;;;;;;;2.80;2.38;;;25.80;63.80;;;;;;5014392;28;20116;-68
2022/05/31 09:48:31;;;;;;;4.05;3.08;;;25.80;63.70;;;;;;5014141;28;20038;-69
2022/05/31 09:51:17;;;;;;;3.97;3.08;;;25.90;63.60;;;;;;5013909;28;20033;-67
2022/05/31 09:59:20;;;;;;;6.10;3.13;;;26.00;62.60;;;;;;5014009;28;19931;-67
2022/05/31 10:01:47;;;;;;;2.78;2.35;;;26.00;62.90;;;;;;5013887;28;20414;-68
2022/05/31 10:04:34;;;;;;;4.63;2.50;;;26.10;63.00;;;;;;5013748;28;20022;-67
2022/05/31 10:07:05;;;;;;;2.90;2.60;;;26.10;62.90;;;;;;5013766;28;20073;-66
2022/05/31 10:09:40;;;;;;;3.35;2.88;;;26.10;62.60;;;;;;5012547;28;20041;-67
2022/05/31 10:12:15;;;;;;;3.42;2.28;;;26.20;62.50;;;;;;5012773;28;20034;-69
2022/05/31 10:14:48;;;;;;;2.40;2.20;;;26.30;62.40;;;;;;5013892;28;20061;-67
2022/05/31 10:17:42;;;;;;;3.03;2.40;;;26.30;62.30;;;;;;5014012;28;20483;-67
2022/05/31 10:20:14;;;;;;;3.70;2.75;;;26.40;61.50;;;;;;5013733;28;20022;-68
2022/05/31 10:23:03;;;;;;;2.97;2.30;;;26.50;61.80;;;;;;5013684;28;20041;-68
2022/05/31 10:25:43;;;;;;;3.15;2.30;;;26.60;61.40;;;;;;5012537;28;20062;-70
2022/05/31 10:28:19;;;;;;;3.72;2.10;;;26.60;61.70;;;;;;5013613;28;20088;-67
2022/05/31 10:30:50;;;;;;;2.95;2.35;;;26.70;61.50;;;;;;5013649;28;20530;-69
2022/05/31 10:33:26;;;;;;;3.58;2.50;;;26.70;61.40;;;;;;5013660;28;20026;-66
2022/05/31 10:36:28;;;;;;;2.95;2.65;;;26.70;60.80;;;;;;5013141;28;20025;-67
2022/05/31 10:38:54;;;;;;;2.70;2.30;;;26.70;60.00;;;;;;5011424;28;20049;-66
2022/05/31 10:41:30;;;;;;;3.67;2.60;;;26.70;60.70;;;;;;5013539;28;20026;-67
2022/05/31 10:44:13;;;;;;;3.50;2.33;;;26.70;60.60;;;;;;5012209;28;20099;-67
2022/05/31 10:46:42;;;;;;;3.50;2.90;;;26.70;60.40;;;;;;5013755;28;20092;-68
2022/05/31 10:49:20;;;;;;;5.88;2.92;;;26.70;60.30;;;;;;5013358;28;20038;-68
2022/05/31 10:51:53;;;;;;;3.40;2.45;;;26.70;59.80;;;;;;5013572;28;20037;-68
2022/05/31 10:54:49;;;;;;;4.25;2.72;;;26.60;60.10;;;;;;5012004;28;20030;-68
2022/05/31 10:57:23;;;;;;;4.47;2.63;;;26.60;59.90;;;;;;5013328;28;20034;-69
2022/05/31 11:00:12;;;;;;;3.28;2.80;;;26.50;60.00;;;;;;5013071;28;20033;-66
2022/05/31 11:03:16;;;;;;;3.53;2.70;;;26.40;59.20;;;;;;5012397;28;20030;-67
2022/05/31 11:05:54;;;;;;;3.53;2.45;;;26.30;59.10;;;;;;5013035;28;20050;-67
2022/05/31 11:11:39;;;;;;;3.25;2.58;;;26.20;60.10;;;;;;5016597;28;20041;-67
2022/05/31 11:14:23;;;;;;;2.83;2.55;;;26.20;60.50;;;;;;5017104;28;20041;-66
2022/05/31 11:16:54;;;;;;;4.20;2.95;;;26.10;60.50;;;;;;5016796;28;20116;-68
2022/05/31 11:19:50;;;;;;;5.38;2.97;;;26.00;60.80;;;;;;5016826;28;20083;-70
2022/05/31 11:22:47;;;;;;;4.53;2.78;;;26.00;60.50;;;;;;5016751;28;20068;-67
2022/05/31 11:25:24;;;;;;;3.85;3.00;;;25.90;61.00;;;;;;5015611;28;20022;-68
2022/05/31 11:28:05;;;;;;;5.43;3.20;;;25.90;61.20;;;;;;5016252;28;20072;-73
2022/05/31 11:31:11;;;;;;;5.30;3.20;;;25.80;61.30;;;;;;5015450;28;20030;-73
2022/05/31 11:34:12;;;;;;;3.83;2.85;;;25.70;61.50;;;;;;5016442;28;20092;-72
2022/05/31 11:36:56;;;;;;;4.15;3.25;;;25.60;61.60;;;;;;5016641;28;20022;-72
2022/05/31 11:39:47;;;;;;;4.18;2.90;;;25.60;61.70;;;;;;5015205;28;20125;-74
2022/05/31 11:42:42;;;;;;;7.90;3.42;;;25.70;61.70;;;;;;5015413;28;20041;-74
2022/05/31 11:45:10;;;;;;;4.60;3.05;;;25.70;61.70;;;;;;5016861;28;20125;-74
2022/05/31 11:48:05;;;;;;;3.22;2.85;;;25.60;61.80;;;;;;5015032;28;20037;-74
2022/05/31 11:50:36;;;;;;;4.57;3.10;;;25.70;61.90;;;;;;5015107;28;20077;-74
2022/05/31 11:53:38;;;;;;;3.97;2.97;;;25.60;62.00;;;;;;5016103;28;20030;-75
2022/05/31 11:56:24;;;;;;;4.90;3.10;;;25.60;62.00;;;;;;5014951;28;20452;-74
2022/05/31 11:58:59;;;;;;;4.30;2.95;;;25.60;62.60;;;;;;5024797;28;20041;-74
2022/05/31 12:01:29;;;;;;;3.67;2.78;;;25.70;62.10;;;;;;5014857;28;20104;-75
2022/05/31 12:04:21;;;;;;;4.90;2.80;;;25.80;62.20;;;;;;5014650;28;20125;-73
2022/05/31 12:06:53;;;;;;;4.43;3.00;;;25.80;62.20;;;;;;5018392;28;20045;-74
2022/05/31 12:09:27;;;;;;;3.65;3.15;;;25.90;62.00;;;;;;5014792;28;20025;-74
2022/05/31 12:12:02;;;;;;;4.65;3.20;;;26.00;61.80;;;;;;5014888;28;20030;-72
2022/05/31 12:14:30;;;;;;;4.45;3.20;;;26.10;62.50;;;;;;5015744;28;20124;-73
2022/05/31 12:16:56;;;;;;;5.32;3.20;;;26.10;61.80;;;;;;5015673;28;20108;-71
2022/05/31 12:19:48;;;;;;;4.75;3.38;;;26.20;61.80;;;;;;5015515;28;20030;-74
2022/05/31 12:22:18;;;;;;;5.63;3.33;;;26.20;61.70;;;;;;5016057;28;20034;-74
2022/05/31 12:24:54;;;;;;;5.57;3.60;;;26.20;61.60;;;;;;5015687;28;20026;-76
2022/05/31 12:27:30;;;;;;;6.30;4.00;;;26.30;61.80;;;;;;5014723;28;20030;-75
2022/05/31 12:30:06;;;;;;;4.38;3.60;;;26.30;61.70;;;;;;5015595;28;20052;-74
2022/05/31 12:32:40;;;;;;;5.75;3.67;;;26.30;61.70;;;;;;5015385;28;20030;-75
2022/05/31 12:35:10;;;;;;;5.00;4.28;;;26.30;61.80;;;;;;5019609;28;20030;-76
2022/05/31 12:38:01;;;;;;;5.72;4.18;;;26.30;62.00;;;;;;5020058;28;20034;-72
2022/05/31 12:40:32;;;;;;;6.00;4.97;;;26.40;61.90;;;;;;5017966;28;20040;-75
2022/05/31 12:43:05;;;;;;;6.10;5.15;;;26.30;61.90;;;;;;5016750;28;20045;-74
2022/05/31 12:45:33;;;;;;;6.22;5.63;;;26.20;61.90;;;;;;5015122;28;20025;-74
2022/05/31 12:48:09;;;;;;;7.05;5.32;;;26.10;61.90;;;;;;5014021;28;20117;-73
2022/05/31 12:50:52;;;;;;;6.60;5.47;;;26.00;62.70;;;;;;5014456;28;20523;-74
2022/05/31 12:53:22;;;;;;;6.30;5.32;;;25.90;62.30;;;;;;5019723;28;20033;-74
2022/05/31 12:55:50;;;;;;;7.25;5.75;;;25.80;62.30;;;;;;5019423;28;20104;-73
2022/05/31 12:58:34;;;;;;;7.65;5.53;;;25.50;62.30;;;;;;5014927;28;20026;-73
2022/05/31 13:01:13;;;;;;;7.78;5.32;;;25.40;62.60;;;;;;5014662;28;20046;-74
2022/05/31 13:03:51;;;;;;;6.50;5.78;;;25.20;62.90;;;;;;5015296;28;20030;-73
2022/05/31 13:06:35;;;;;;;6.68;5.82;;;25.10;63.30;;;;;;5033174;28;20121;-74
2022/05/31 13:09:13;;;;;;;6.10;5.00;;;24.80;63.40;;;;;;5033494;28;20033;-73
2022/05/31 13:20:39;;;;;;;5.80;4.82;;;24.30;64.50;;;;;;5044820;28;20041;-75
2022/05/31 13:23:20;;;;;;;5.85;4.93;;;24.30;64.90;;;;;;5018193;28;20026;-72
2022/05/31 13:26:01;;;;;;;5.43;4.80;;;24.20;65.20;;;;;;5013612;28;20396;-74
2022/05/31 13:28:32;;;;;;;5.75;4.40;;;24.10;65.40;;;;;;5014290;28;20071;-73
2022/05/31 13:31:16;;;;;;;6.63;4.80;;;24.10;65.20;;;;;;5013869;28;20349;-74
2022/05/31 13:33:44;;;;;;;5.00;4.47;;;24.10;65.40;;;;;;5021993;28;20174;-73
2022/05/31 13:36:21;;;;;;;6.97;4.57;;;24.20;65.50;;;;;;5022961;28;20030;-73
2022/05/31 13:38:51;;;;;;;5.38;4.57;;;24.40;65.40;;;;;;5033925;28;20030;-72
2022/05/31 13:41:20;;;;;;;5.50;4.70;;;24.70;65.20;;;;;;5032619;28;20040;-73
2022/05/31 13:43:59;;;;;;;5.60;4.80;;;25.10;64.80;;;;;;5032595;28;20468;-73